createdAt,value
2022-09-16T00:01:54.036Z,25.60
2022-09-16T00:04:27.654Z,25.60
2022-09-16T00:07:03.671Z,25.50
2022-09-16T00:09:38.347Z,25.60
2022-09-16T00:12:11.897Z,25.60
2022-09-16T00:14:45.453Z,25.60
2022-09-16T00:17:18.978Z,25.50
2022-09-16T00:19:52.702Z,25.60
2022-09-16T00:22:28.719Z,25.60
2022-09-16T00:25:02.281Z,25.60
2022-09-16T00:27:35.972Z,25.60
2022-09-16T00:30:10.217Z,25.60
2022-09-16T00:32:43.769Z,25.60
2022-09-16T00:35:17.339Z,25.50
2022-09-16T00:37:52.308Z,25.50
2022-09-16T00:40:25.892Z,25.50
2022-09-16T00:43:00.363Z,25.50
2022-09-16T00:45:34.049Z,25.50
2022-09-16T00:48:09.672Z,25.50
2022-09-16T00:50:45.484Z,25.50
2022-09-16T00:53:22.247Z,25.50
2022-09-16T00:55:57.875Z,25.60
2022-09-16T00:58:35.299Z,25.50
2022-09-16T01:01:09.167Z,25.60
2022-09-16T01:03:45.934Z,25.50
2022-09-16T01:06:21.346Z,25.60
2022-09-16T01:08:56.975Z,25.50
2022-09-16T01:11:30.752Z,25.50
2022-09-16T01:14:19.350Z,25.50
2022-09-16T01:16:59.365Z,25.60
2022-09-16T01:19:53.892Z,25.50
2022-09-16T01:22:34.646Z,25.50
2022-09-16T01:25:15.217Z,25.50
2022-09-16T01:28:01.747Z,25.50
2022-09-16T01:30:45.506Z,25.50
2022-09-16T01:33:23.385Z,25.50
2022-09-16T01:36:04.575Z,25.50
2022-09-16T01:38:43.877Z,25.50
2022-09-16T01:41:22.082Z,25.50
2022-09-16T01:44:00.548Z,25.50
2022-09-16T01:46:43.063Z,25.50
2022-09-16T01:49:19.436Z,25.50
2022-09-16T01:51:58.551Z,25.50
2022-09-16T01:54:34.291Z,25.50
2022-09-16T01:57:11.111Z,25.50
2022-09-16T01:59:46.199Z,25.50
2022-09-16T02:02:22.789Z,25.50
2022-09-16T02:04:57.691Z,25.50
2022-09-16T02:07:33.382Z,25.50
2022-09-16T02:10:09.457Z,25.50
2022-09-16T02:12:44.485Z,25.50
2022-09-16T02:15:22.386Z,25.50
2022-09-16T02:17:59.202Z,25.50
2022-09-16T02:20:33.993Z,25.40
2022-09-16T02:23:09.397Z,25.40
2022-09-16T02:25:43.853Z,25.40
2022-09-16T02:28:19.295Z,25.40
2022-09-16T02:30:55.260Z,25.40
2022-09-16T02:33:32.202Z,25.40
2022-09-16T02:36:06.982Z,25.40
2022-09-16T02:38:42.696Z,25.40
2022-09-16T02:41:16.554Z,25.40
2022-09-16T02:43:50.212Z,25.40
2022-09-16T02:46:27.030Z,25.40
2022-09-16T02:49:06.003Z,25.40
2022-09-16T02:51:42.573Z,25.40
2022-09-16T02:54:21.422Z,25.40
2022-09-16T02:56:55.750Z,25.40
2022-09-16T02:59:29.459Z,25.40
2022-09-16T03:02:03.091Z,25.40
2022-09-16T03:04:38.157Z,25.40
2022-09-16T03:07:12.606Z,25.40
2022-09-16T03:09:49.079Z,25.40
2022-09-16T03:12:40.568Z,25.40
2022-09-16T03:15:25.592Z,25.40
2022-09-16T03:18:14.353Z,25.40
2022-09-16T03:20:54.121Z,25.40
2022-09-16T03:23:32.734Z,25.40
2022-09-16T03:26:09.671Z,25.40
2022-09-16T03:28:47.963Z,25.40
2022-09-16T03:31:25.475Z,25.40
2022-09-16T03:34:01.648Z,25.40
2022-09-16T03:36:38.344Z,25.40
2022-09-16T03:39:12.558Z,25.40
2022-09-16T03:41:46.445Z,25.40
2022-09-16T03:44:20.045Z,25.40
2022-09-16T03:46:53.617Z,25.40
2022-09-16T03:49:27.240Z,25.40
2022-09-16T03:52:02.557Z,25.40
2022-09-16T03:54:36.443Z,25.40
2022-09-16T03:57:10.806Z,25.40
2022-09-16T03:59:44.382Z,25.40
2022-09-16T04:02:18.020Z,25.40
2022-09-16T04:04:51.979Z,25.40
2022-09-16T04:07:26.988Z,25.40
2022-09-16T04:10:00.585Z,25.40
2022-09-16T04:12:34.418Z,25.40
2022-09-16T04:15:08.581Z,25.40
2022-09-16T04:17:42.324Z,25.40
2022-09-16T04:20:16.203Z,25.40
2022-09-16T04:22:51.388Z,25.40
2022-09-16T04:25:24.944Z,25.40
2022-09-16T04:27:58.636Z,25.40
2022-09-16T04:30:32.195Z,25.40
2022-09-16T04:33:05.736Z,25.40
2022-09-16T04:35:39.264Z,25.40
2022-09-16T04:38:14.233Z,25.40
2022-09-16T04:40:47.727Z,25.40
2022-09-16T04:43:21.313Z,25.40
2022-09-16T04:45:54.846Z,25.40
2022-09-16T04:48:28.463Z,25.40
2022-09-16T04:51:06.117Z,25.40
2022-09-16T04:53:43.975Z,25.40
2022-09-16T04:56:18.540Z,25.40
2022-09-16T04:58:53.305Z,25.40
2022-09-16T05:01:27.661Z,25.30
2022-09-16T05:04:02.512Z,25.30
2022-09-16T05:06:36.836Z,25.40
2022-09-16T05:09:12.601Z,25.40
2022-09-16T05:11:46.198Z,25.40
2022-09-16T05:14:19.889Z,25.40
2022-09-16T05:16:53.997Z,25.40
2022-09-16T05:19:27.597Z,25.30
2022-09-16T05:22:03.083Z,25.40
2022-09-16T05:24:38.050Z,25.40
2022-09-16T05:27:11.676Z,25.40
2022-09-16T05:29:45.235Z,25.40
2022-09-16T05:32:18.828Z,25.40
2022-09-16T05:34:52.418Z,25.40
2022-09-16T05:37:25.969Z,25.30
2022-09-16T05:40:00.960Z,25.40
2022-09-16T05:42:34.707Z,25.40
2022-09-16T05:45:09.000Z,25.40
2022-09-16T05:47:42.576Z,25.40
2022-09-16T05:50:16.326Z,25.40
2022-09-16T05:52:49.931Z,25.40
2022-09-16T05:55:26.505Z,25.40
2022-09-16T05:58:00.168Z,25.40
2022-09-16T06:00:34.043Z,25.40
2022-09-16T06:03:07.871Z,25.40
2022-09-16T06:05:45.570Z,25.50
2022-09-16T06:08:19.355Z,25.50
2022-09-16T06:10:54.295Z,25.50
2022-09-16T06:13:27.823Z,25.50
2022-09-16T06:16:01.406Z,25.60
2022-09-16T06:18:35.276Z,25.60
2022-09-16T06:21:10.103Z,25.60
2022-09-16T06:23:43.683Z,25.70
2022-09-16T06:26:19.418Z,25.60
2022-09-16T06:28:53.694Z,25.70
2022-09-16T06:31:27.813Z,25.60
2022-09-16T06:34:01.378Z,25.60
2022-09-16T06:36:38.577Z,25.70
2022-09-16T06:39:13.448Z,25.70
2022-09-16T06:41:48.439Z,25.60
2022-09-16T06:44:23.272Z,25.70
2022-09-16T06:46:56.928Z,25.70
2022-09-16T06:49:30.535Z,25.70
2022-09-16T06:52:04.354Z,25.70
2022-09-16T06:54:37.998Z,25.70
2022-09-16T06:57:13.000Z,25.60
2022-09-16T06:59:47.169Z,25.60
2022-09-16T07:02:21.149Z,25.60
2022-09-16T07:04:55.508Z,25.70
2022-09-16T07:07:31.058Z,25.70
2022-09-16T07:10:05.523Z,25.60
2022-09-16T07:12:40.532Z,25.60
2022-09-16T07:15:14.185Z,25.60
2022-09-16T07:17:47.760Z,25.70
2022-09-16T07:20:21.511Z,25.60
2022-09-16T07:22:55.186Z,25.60
2022-09-16T07:25:32.472Z,25.60
2022-09-16T07:28:10.609Z,25.70
2022-09-16T07:30:44.469Z,25.70
2022-09-16T07:33:18.087Z,25.60
2022-09-16T07:35:51.674Z,25.70
2022-09-16T07:38:25.269Z,25.60
2022-09-16T07:41:05.201Z,25.60
2022-09-16T07:43:40.587Z,25.70
2022-09-16T07:46:14.761Z,25.70
2022-09-16T07:48:49.085Z,25.70
2022-09-16T07:51:23.460Z,25.60
2022-09-16T07:53:59.469Z,25.70
2022-09-16T07:56:34.533Z,25.70
2022-09-16T07:59:14.319Z,25.70
2022-09-16T08:01:51.520Z,25.60
2022-09-16T08:04:25.109Z,25.70
2022-09-16T08:06:58.665Z,25.60
2022-09-16T08:09:38.800Z,25.60
2022-09-16T08:12:14.927Z,25.60
2022-09-16T08:14:50.114Z,25.70
2022-09-16T08:17:23.728Z,25.60
2022-09-16T08:19:57.358Z,25.60
2022-09-16T08:22:31.030Z,25.60
2022-09-16T08:25:04.764Z,25.50
2022-09-16T08:27:38.703Z,25.50
2022-09-16T08:30:14.063Z,25.50
2022-09-16T08:32:47.648Z,25.50
2022-09-16T08:35:21.328Z,25.50
2022-09-16T08:37:54.919Z,25.50
2022-09-16T08:40:32.580Z,25.50
2022-09-16T08:43:09.133Z,25.50
2022-09-16T08:45:48.115Z,25.50
2022-09-16T08:48:30.898Z,25.50
2022-09-16T08:51:06.261Z,25.50
2022-09-16T08:53:43.695Z,25.60
2022-09-16T08:56:18.428Z,25.60
2022-09-16T08:58:53.593Z,25.60
2022-09-16T09:01:31.417Z,25.60
2022-09-16T09:04:05.472Z,25.70
2022-09-16T09:06:47.913Z,25.70
2022-09-16T09:09:36.579Z,25.70
2022-09-16T09:12:15.695Z,25.70
2022-09-16T09:14:59.131Z,25.70
2022-09-16T09:17:48.203Z,25.70
2022-09-16T09:20:26.455Z,25.80
2022-09-16T09:23:09.204Z,25.70
2022-09-16T09:25:46.434Z,25.80
2022-09-16T09:28:24.730Z,25.80
2022-09-16T09:31:01.822Z,25.80
2022-09-16T09:33:46.438Z,25.80
2022-09-16T09:36:27.592Z,25.80
2022-09-16T09:39:18.612Z,25.80
2022-09-16T09:41:54.256Z,25.80
2022-09-16T09:44:35.831Z,25.80
2022-09-16T09:47:12.095Z,25.80
2022-09-16T09:49:47.961Z,25.80
2022-09-16T09:52:24.282Z,25.80
2022-09-16T09:55:02.276Z,25.80
2022-09-16T09:57:38.821Z,25.80
2022-09-16T10:00:15.378Z,25.80
2022-09-16T10:02:50.092Z,25.80
2022-09-16T10:05:26.081Z,25.80
2022-09-16T10:08:03.518Z,25.80
2022-09-16T10:10:49.585Z,25.80
2022-09-16T10:13:23.867Z,25.80
2022-09-16T10:16:10.617Z,25.80
2022-09-16T10:18:45.414Z,25.80
2022-09-16T10:21:20.362Z,25.80
2022-09-16T10:23:57.511Z,25.80
2022-09-16T10:26:31.146Z,25.80
2022-09-16T10:29:05.510Z,25.80
2022-09-16T10:31:40.571Z,25.90
2022-09-16T10:34:16.764Z,25.80
2022-09-16T10:37:00.912Z,25.80
2022-09-16T10:39:34.709Z,25.80
2022-09-16T10:42:17.120Z,25.80
2022-09-16T10:44:51.679Z,25.80
2022-09-16T10:47:26.962Z,25.80
2022-09-16T10:50:02.370Z,25.80
2022-09-16T10:52:44.001Z,25.80
2022-09-16T10:55:22.718Z,25.80
2022-09-16T10:57:56.759Z,25.80
2022-09-16T11:00:33.282Z,25.80
2022-09-16T11:03:33.890Z,25.80
2022-09-16T11:06:20.113Z,25.80
2022-09-16T11:09:00.072Z,25.80
2022-09-16T11:11:51.227Z,25.80
2022-09-16T11:14:29.908Z,25.80
2022-09-16T11:17:11.455Z,25.80
2022-09-16T11:19:51.565Z,25.80
2022-09-16T11:22:31.203Z,25.80
2022-09-16T11:25:24.230Z,25.80
2022-09-16T11:28:03.100Z,25.80
2022-09-16T11:30:39.230Z,25.80
2022-09-16T11:33:19.824Z,25.80
2022-09-16T11:36:07.412Z,25.80
2022-09-16T11:38:46.755Z,25.80
2022-09-16T11:41:25.807Z,25.80
2022-09-16T11:44:06.082Z,25.80
2022-09-16T11:46:46.978Z,25.80
2022-09-16T11:49:27.474Z,25.80
2022-09-16T11:52:05.093Z,25.90
2022-09-16T11:54:47.709Z,25.90
2022-09-16T11:57:25.977Z,25.90
2022-09-16T12:00:00.662Z,25.90
2022-09-16T12:02:38.460Z,25.90
2022-09-16T12:05:16.348Z,25.90
2022-09-16T12:07:53.266Z,26.00
2022-09-16T12:10:31.380Z,26.00
2022-09-16T12:13:09.688Z,26.00
2022-09-16T12:15:46.283Z,26.00
2022-09-16T12:18:21.841Z,26.00
2022-09-16T12:21:02.052Z,26.00
2022-09-16T12:23:37.512Z,26.00
2022-09-16T12:26:12.801Z,26.00
2022-09-16T12:28:51.926Z,26.00
2022-09-16T12:31:30.641Z,26.00
2022-09-16T12:34:06.222Z,25.90
2022-09-16T12:36:41.633Z,25.90
2022-09-16T12:39:15.818Z,26.00
2022-09-16T12:42:07.553Z,25.90
2022-09-16T12:44:54.694Z,26.00
2022-09-16T12:47:38.703Z,26.00
2022-09-16T12:50:25.660Z,26.00
2022-09-16T12:53:26.716Z,26.00
2022-09-16T12:56:03.608Z,25.90
2022-09-16T12:58:55.153Z,25.90
2022-09-16T13:01:34.057Z,25.90
2022-09-16T13:04:11.293Z,25.90
2022-09-16T13:06:47.426Z,25.90
2022-09-16T13:09:23.661Z,25.90
2022-09-16T13:14:53.146Z,25.90
2022-09-16T13:17:32.501Z,25.90
2022-09-16T13:20:08.782Z,25.90
2022-09-16T13:22:47.326Z,25.80
2022-09-16T13:25:23.720Z,25.90
2022-09-16T13:27:58.904Z,25.80
2022-09-16T13:30:37.048Z,25.80
2022-09-16T13:33:28.164Z,25.90
2022-09-16T13:36:14.650Z,25.80
2022-09-16T13:38:49.893Z,25.80
2022-09-16T13:41:30.756Z,25.80
2022-09-16T13:44:05.520Z,25.80
2022-09-16T13:46:39.432Z,25.80
2022-09-16T13:49:18.148Z,25.80
2022-09-16T13:51:52.308Z,25.80
2022-09-16T13:54:30.371Z,25.80
2022-09-16T13:57:22.345Z,25.80
2022-09-16T14:00:13.361Z,25.80
2022-09-16T14:02:54.866Z,25.80
2022-09-16T14:05:37.169Z,25.70
2022-09-16T14:08:15.720Z,25.70
2022-09-16T14:10:55.384Z,25.70
2022-09-16T14:13:35.781Z,25.70
2022-09-16T14:16:13.870Z,25.70
2022-09-16T14:18:52.343Z,25.70
2022-09-16T14:21:27.511Z,25.70
2022-09-16T14:24:08.974Z,25.70
2022-09-16T14:26:50.868Z,25.70
2022-09-16T14:29:25.341Z,25.70
2022-09-16T14:32:00.157Z,25.70
2022-09-16T14:34:35.296Z,25.70
2022-09-16T14:37:16.875Z,25.70
2022-09-16T14:39:55.082Z,25.70
2022-09-16T14:42:30.849Z,25.70
2022-09-16T14:45:05.570Z,25.70
2022-09-16T14:47:51.270Z,25.80
2022-09-16T14:50:27.578Z,25.80
2022-09-16T14:53:03.174Z,25.80
2022-09-16T14:55:40.334Z,25.80
2022-09-16T14:58:14.057Z,25.80
2022-09-16T15:00:48.835Z,25.80
2022-09-16T15:03:25.625Z,25.80
2022-09-16T15:06:00.179Z,25.80
2022-09-16T15:08:38.240Z,25.80
2022-09-16T15:11:29.703Z,25.80
2022-09-16T15:14:08.692Z,25.80
2022-09-16T15:16:45.365Z,25.80
2022-09-16T15:19:21.576Z,25.80
2022-09-16T15:21:55.543Z,25.80
2022-09-16T15:24:32.588Z,25.80
2022-09-16T15:27:06.329Z,25.80
2022-09-16T15:29:49.308Z,25.80
2022-09-16T15:32:24.257Z,25.80
2022-09-16T15:35:28.445Z,25.80
2022-09-16T15:38:12.182Z,25.80
2022-09-16T15:40:47.135Z,25.70
2022-09-16T15:43:24.826Z,25.80
2022-09-16T15:45:59.583Z,25.70
2022-09-16T15:48:35.168Z,25.80
2022-09-16T15:51:11.592Z,25.80
2022-09-16T15:53:47.807Z,25.70
2022-09-16T15:56:26.024Z,25.70
2022-09-16T15:59:01.296Z,25.70
2022-09-16T16:01:43.890Z,25.70
2022-09-16T16:04:24.297Z,25.70
2022-09-16T16:06:59.484Z,25.70
2022-09-16T16:09:38.278Z,25.70
2022-09-16T16:12:14.608Z,25.70
2022-09-16T16:14:48.251Z,25.70
2022-09-16T16:17:23.868Z,25.70
2022-09-16T16:19:57.787Z,25.70
2022-09-16T16:22:32.685Z,25.70
2022-09-16T16:25:06.872Z,25.70
2022-09-16T16:27:42.025Z,25.70
2022-09-16T16:30:15.661Z,25.70
2022-09-16T16:32:49.304Z,25.70
2022-09-16T16:35:23.176Z,25.70
2022-09-16T16:37:56.846Z,25.70
2022-09-16T16:40:30.570Z,25.70
2022-09-16T16:43:05.648Z,25.70
2022-09-16T16:45:39.297Z,25.70
2022-09-16T16:48:13.120Z,25.70
2022-09-16T16:50:55.584Z,25.70
2022-09-16T16:53:29.383Z,25.70
2022-09-16T16:56:09.284Z,25.70
2022-09-16T16:58:46.336Z,25.70
2022-09-16T17:01:21.080Z,25.70
2022-09-16T17:03:56.650Z,25.80
2022-09-16T17:06:30.620Z,25.80
2022-09-16T17:09:04.261Z,25.80
2022-09-16T17:11:38.289Z,25.80
2022-09-16T17:14:13.340Z,25.80
2022-09-16T17:16:48.558Z,25.80
2022-09-16T17:19:22.621Z,25.80
2022-09-16T17:21:57.889Z,25.80
2022-09-16T17:24:31.423Z,25.80
2022-09-16T17:27:05.274Z,25.80
2022-09-16T17:29:40.222Z,25.80
2022-09-16T17:32:13.796Z,25.80
2022-09-16T17:34:47.519Z,25.80
2022-09-16T17:37:21.351Z,25.80
2022-09-16T17:39:55.158Z,25.80
2022-09-16T17:42:28.815Z,25.80
2022-09-16T17:45:06.496Z,25.80
2022-09-16T17:47:40.142Z,25.80
2022-09-16T17:50:14.308Z,25.80
2022-09-16T17:52:48.596Z,25.80
2022-09-16T17:55:22.313Z,25.80
2022-09-16T17:57:55.925Z,25.70
2022-09-16T18:00:31.014Z,25.80
2022-09-16T18:03:05.034Z,25.70
2022-09-16T18:05:39.436Z,25.70
2022-09-16T18:08:13.046Z,25.70
2022-09-16T18:10:53.318Z,25.70
2022-09-16T18:13:27.110Z,25.70
2022-09-16T18:16:06.203Z,25.70
2022-09-16T18:18:40.918Z,25.70
2022-09-16T18:21:16.861Z,25.70
2022-09-16T18:23:53.660Z,25.70
2022-09-16T18:26:27.920Z,25.60
2022-09-16T18:29:18.945Z,25.60
2022-09-16T18:31:55.815Z,25.60
2022-09-16T18:34:33.385Z,25.60
2022-09-16T18:37:07.946Z,25.60
2022-09-16T18:39:42.394Z,25.60
2022-09-16T18:42:16.668Z,25.60
2022-09-16T18:44:50.537Z,25.60
2022-09-16T18:47:25.889Z,25.60
2022-09-16T18:49:59.778Z,25.60
2022-09-16T18:52:33.861Z,25.50
2022-09-16T18:55:08.494Z,25.50
2022-09-16T18:57:42.557Z,25.50
2022-09-16T19:00:16.892Z,25.50
2022-09-16T19:02:53.134Z,25.50
2022-09-16T19:05:27.421Z,25.50
2022-09-16T19:08:01.250Z,25.50
2022-09-16T19:10:35.169Z,25.50
2022-09-16T19:13:09.613Z,25.50
2022-09-16T19:15:44.303Z,25.50
2022-09-16T19:18:20.598Z,25.50
2022-09-16T19:20:55.677Z,25.50
2022-09-16T19:23:30.077Z,25.50
2022-09-16T19:26:04.886Z,25.50
2022-09-16T19:28:39.196Z,25.50
2022-09-16T19:31:14.062Z,25.50
2022-09-16T19:33:49.495Z,25.40
2022-09-16T19:36:23.889Z,25.40
2022-09-16T19:38:57.730Z,25.40
2022-09-16T19:41:32.608Z,25.40
2022-09-16T19:44:06.817Z,25.40
2022-09-16T19:46:42.759Z,25.40
2022-09-16T19:49:19.989Z,25.40
2022-09-16T19:51:54.097Z,25.40
2022-09-16T19:54:27.793Z,25.40
2022-09-16T19:57:01.459Z,25.40
2022-09-16T19:59:35.078Z,25.40
2022-09-16T20:02:09.912Z,25.30
2022-09-16T20:04:45.052Z,25.30
2022-09-16T20:07:20.480Z,25.30
2022-09-16T20:09:54.192Z,25.40
2022-09-16T20:12:28.139Z,25.40
2022-09-16T20:15:02.221Z,25.30
2022-09-16T20:17:38.319Z,25.40
2022-09-16T20:20:13.359Z,25.30
2022-09-16T20:22:46.952Z,25.40
2022-09-16T20:25:23.407Z,25.40
2022-09-16T20:27:57.394Z,25.40
2022-09-16T20:30:31.646Z,25.40
2022-09-16T20:33:06.155Z,25.40
2022-09-16T20:35:42.102Z,25.40
2022-09-16T20:38:16.532Z,25.40
2022-09-16T20:40:51.102Z,25.40
2022-09-16T20:43:25.332Z,25.40
2022-09-16T20:46:05.127Z,25.40
2022-09-16T20:48:39.646Z,25.40
2022-09-16T20:51:16.308Z,25.40
2022-09-16T20:53:52.349Z,25.40
2022-09-16T20:56:27.181Z,25.40
2022-09-16T20:59:01.709Z,25.50
2022-09-16T21:01:36.156Z,25.50
2022-09-16T21:04:12.909Z,25.40
2022-09-16T21:06:48.823Z,25.40
2022-09-16T21:09:23.608Z,25.50
2022-09-16T21:11:58.311Z,25.50
2022-09-16T21:14:32.955Z,25.50
2022-09-16T21:17:07.306Z,25.50
2022-09-16T21:19:42.624Z,25.50
2022-09-16T21:22:18.248Z,25.50
2022-09-16T21:24:54.438Z,25.50
2022-09-16T21:27:28.678Z,25.50
2022-09-16T21:30:04.178Z,25.50
2022-09-16T21:32:38.491Z,25.50
2022-09-16T21:35:12.768Z,25.50
2022-09-16T21:37:48.771Z,25.50
2022-09-16T21:40:24.423Z,25.50
2022-09-16T21:42:58.954Z,25.50
2022-09-16T21:45:33.325Z,25.50
2022-09-16T21:48:07.775Z,25.50
2022-09-16T21:50:42.144Z,25.50
2022-09-16T21:53:18.000Z,25.50
2022-09-16T21:55:52.237Z,25.50
2022-09-16T21:58:26.726Z,25.50
2022-09-16T22:01:08.127Z,25.60
2022-09-16T22:03:43.338Z,25.50
2022-09-16T22:06:19.888Z,25.60
2022-09-16T22:08:56.563Z,25.60
2022-09-16T22:11:31.440Z,25.50
2022-09-16T22:14:06.625Z,25.50
2022-09-16T22:16:41.801Z,25.50
2022-09-16T22:19:17.431Z,25.50
2022-09-16T22:21:52.331Z,25.50
2022-09-16T22:24:27.908Z,25.50
2022-09-16T22:27:01.993Z,25.50
2022-09-16T22:29:36.164Z,25.50
2022-09-16T22:32:10.502Z,25.50
2022-09-16T22:34:44.633Z,25.50
2022-09-16T22:37:18.833Z,25.50
2022-09-16T22:39:54.277Z,25.50
2022-09-16T22:42:28.346Z,25.50
2022-09-16T22:45:02.441Z,25.50
2022-09-16T22:47:37.477Z,25.50
2022-09-16T22:50:11.805Z,25.50
2022-09-16T22:52:45.947Z,25.50
2022-09-16T22:55:21.740Z,25.50
2022-09-16T22:57:55.902Z,25.50
2022-09-16T23:00:30.148Z,25.50
2022-09-16T23:03:03.786Z,25.50
2022-09-16T23:05:37.671Z,25.50
2022-09-16T23:08:11.295Z,25.50
2022-09-16T23:10:46.779Z,25.50
2022-09-16T23:13:21.796Z,25.50
2022-09-16T23:15:55.613Z,25.40
2022-09-16T23:18:29.639Z,25.40
2022-09-16T23:21:05.110Z,25.40
2022-09-16T23:23:39.577Z,25.40
2022-09-16T23:26:15.220Z,25.40
2022-09-16T23:28:52.392Z,25.40
2022-09-16T23:31:27.078Z,25.40
2022-09-16T23:34:01.347Z,25.40
2022-09-16T23:36:37.684Z,25.40
2022-09-16T23:39:13.469Z,25.40
2022-09-16T23:41:48.904Z,25.40
2022-09-16T23:44:22.678Z,25.40
2022-09-16T23:46:56.319Z,25.30
2022-09-16T23:49:29.923Z,25.30
2022-09-16T23:52:03.800Z,25.30
2022-09-16T23:54:37.427Z,25.30
2022-09-16T23:57:12.459Z,25.30
2022-09-16T23:59:46.051Z,25.30
